createdAt,value
2023-02-24T00:00:00.834Z,5
2023-02-24T00:05:00.865Z,5
2023-02-24T00:10:00.756Z,4.9
2023-02-24T00:15:00.829Z,5
2023-02-24T00:20:00.821Z,5
2023-02-24T00:25:00.732Z,4.9
2023-02-24T00:30:00.824Z,4.9
2023-02-24T00:35:00.770Z,4.9
2023-02-24T00:40:00.764Z,4.8
2023-02-24T00:45:00.811Z,4.8
2023-02-24T00:50:00.911Z,4.8
2023-02-24T00:55:00.854Z,4.8
2023-02-24T01:00:00.870Z,4.8
2023-02-24T01:05:00.872Z,4.8
2023-02-24T01:10:00.797Z,4.7
2023-02-24T01:15:00.818Z,4.7
2023-02-24T01:20:00.842Z,4.7
2023-02-24T01:25:00.833Z,4.7
2023-02-24T01:30:00.862Z,4.6
2023-02-24T01:35:00.798Z,4.6
2023-02-24T01:40:00.886Z,4.7
2023-02-24T01:45:00.884Z,4.6
2023-02-24T01:50:00.842Z,4.6
2023-02-24T01:55:00.798Z,4.6
2023-02-24T02:00:00.830Z,4.6
2023-02-24T02:05:00.849Z,4.6
2023-02-24T02:10:00.766Z,4.6
2023-02-24T02:15:00.801Z,4.6
2023-02-24T02:20:00.750Z,4.6
2023-02-24T02:25:00.766Z,4.6
2023-02-24T02:30:00.833Z,4.5
2023-02-24T02:35:00.790Z,4.5
2023-02-24T02:40:00.827Z,4.5
2023-02-24T02:45:00.859Z,4.5
2023-02-24T02:50:00.758Z,4.6
2023-02-24T02:55:00.801Z,4.6
2023-02-24T03:00:00.827Z,4.6
2023-02-24T03:05:00.854Z,4.7
2023-02-24T03:10:00.856Z,4.7
2023-02-24T03:15:00.793Z,4.7
2023-02-24T03:20:00.821Z,4.7
2023-02-24T03:25:00.776Z,4.8
2023-02-24T03:30:00.876Z,4.8
2023-02-24T03:35:00.852Z,4.8
2023-02-24T03:40:00.824Z,4.8
2023-02-24T03:45:00.867Z,4.9
2023-02-24T03:50:00.832Z,4.9
2023-02-24T03:55:00.816Z,4.9
2023-02-24T04:00:00.866Z,4.9
2023-02-24T04:05:00.798Z,4.9
2023-02-24T04:10:00.749Z,4.9
2023-02-24T04:15:00.755Z,4.8
2023-02-24T04:20:00.762Z,4.8
2023-02-24T04:25:00.828Z,4.8
2023-02-24T04:30:00.823Z,4.8
2023-02-24T04:35:00.776Z,4.9
2023-02-24T04:40:00.753Z,4.8
2023-02-24T04:45:00.747Z,4.8
2023-02-24T04:50:00.786Z,4.8
2023-02-24T04:55:00.786Z,4.8
2023-02-24T05:00:00.779Z,4.8
2023-02-24T05:05:00.841Z,4.8
2023-02-24T05:10:00.761Z,4.8
2023-02-24T05:15:00.874Z,4.8
2023-02-24T05:20:00.780Z,4.8
2023-02-24T05:25:00.788Z,4.9
2023-02-24T05:30:00.809Z,4.9
2023-02-24T05:35:00.790Z,4.9
2023-02-24T05:40:00.749Z,4.9
2023-02-24T05:45:00.804Z,4.9
2023-02-24T05:50:00.819Z,4.9
2023-02-24T05:55:00.854Z,4.9
2023-02-24T06:00:00.825Z,4.9
2023-02-24T06:05:00.819Z,5
2023-02-24T06:10:00.727Z,5
2023-02-24T06:15:00.820Z,5
2023-02-24T06:20:00.796Z,5
2023-02-24T06:25:00.819Z,5
2023-02-24T06:30:00.810Z,5
2023-02-24T06:35:00.750Z,5
2023-02-24T06:40:00.751Z,5
2023-02-24T06:45:00.800Z,5.1
2023-02-24T06:50:00.827Z,5.2
2023-02-24T06:55:00.797Z,5.2
2023-02-24T07:00:00.814Z,5.2
2023-02-24T07:05:00.760Z,5.2
2023-02-24T07:10:00.777Z,5.3
2023-02-24T07:15:00.844Z,5.3
2023-02-24T07:20:00.782Z,5.3
2023-02-24T07:25:00.904Z,5.4
2023-02-24T07:30:00.763Z,5.5
2023-02-24T07:35:00.805Z,5.6
2023-02-24T07:40:00.818Z,5.6
2023-02-24T07:45:00.804Z,5.6
2023-02-24T07:50:00.844Z,5.7
2023-02-24T07:55:00.783Z,5.8
2023-02-24T08:00:00.810Z,5.9
2023-02-24T08:05:00.828Z,6.2
2023-02-24T08:10:00.777Z,6.5
2023-02-24T08:15:00.841Z,6.6
2023-02-24T08:20:00.799Z,7
2023-02-24T08:25:00.828Z,7
2023-02-24T08:30:00.809Z,7.1
2023-02-24T08:35:00.793Z,7.2
2023-02-24T08:40:00.791Z,7.3
2023-02-24T08:45:00.785Z,7.2
2023-02-24T08:50:00.872Z,7.2
2023-02-24T08:55:00.824Z,7.3
2023-02-24T09:00:00.808Z,7.2
2023-02-24T09:05:00.861Z,7.2
2023-02-24T09:10:00.791Z,7
2023-02-24T09:15:00.898Z,7
2023-02-24T09:20:00.778Z,6.9
2023-02-24T09:25:00.761Z,7
2023-02-24T09:30:00.813Z,7
2023-02-24T09:35:00.872Z,7
2023-02-24T09:40:00.778Z,7
2023-02-24T09:45:00.671Z,7.2
2023-02-24T09:50:00.788Z,7.3
2023-02-24T09:55:00.735Z,7.2
2023-02-24T10:00:00.784Z,7.3
2023-02-24T10:05:00.780Z,7.2
2023-02-24T10:15:01.284Z,7.1
2023-02-24T10:20:00.837Z,6.9
2023-02-24T10:25:00.785Z,7
2023-02-24T10:35:00.927Z,7
2023-02-24T10:40:00.762Z,7.3
2023-02-24T10:45:02.391Z,7.1
2023-02-24T10:50:00.835Z,7.3
2023-02-24T10:55:00.881Z,7.4
2023-02-24T11:00:00.786Z,7.3
2023-02-24T11:05:02.358Z,7.4
2023-02-24T11:10:00.880Z,7.4
2023-02-24T11:15:00.805Z,7.3
2023-02-24T11:20:00.728Z,7.2
2023-02-24T11:25:01.834Z,7.2
2023-02-24T11:30:00.829Z,7.3
2023-02-24T11:35:00.858Z,7.5
2023-02-24T11:40:00.871Z,7.3
2023-02-24T11:45:00.796Z,7.4
2023-02-24T11:50:01.759Z,7.4
2023-02-24T11:55:00.755Z,7.5
2023-02-24T12:00:00.804Z,7.4
2023-02-24T12:05:00.903Z,7.4
2023-02-24T12:10:14.399Z,7.4
2023-02-24T12:15:00.798Z,7.4
2023-02-24T12:20:00.836Z,7.4
2023-02-24T12:25:00.748Z,7.4
2023-02-24T12:30:00.836Z,7.4
2023-02-24T12:35:00.858Z,7.4
2023-02-24T12:40:00.775Z,7.4
2023-02-24T12:45:00.783Z,7.5
2023-02-24T12:50:00.844Z,7.4
2023-02-24T12:55:00.798Z,7.3
2023-02-24T13:00:00.848Z,7.3
2023-02-24T13:05:00.801Z,7.3
2023-02-24T13:10:00.930Z,7.4
2023-02-24T13:15:00.945Z,7.4
2023-02-24T13:20:00.780Z,7.5
2023-02-24T13:25:00.893Z,7.3
2023-02-24T13:30:00.811Z,7.3
2023-02-24T13:35:00.904Z,7.4
2023-02-24T13:40:00.876Z,7.4
2023-02-24T13:45:00.849Z,7.3
2023-02-24T13:50:00.928Z,7
2023-02-24T13:55:00.812Z,7.2
2023-02-24T14:00:00.847Z,7.1
2023-02-24T14:05:00.930Z,7.2
2023-02-24T14:10:00.889Z,7.2
2023-02-24T14:15:00.836Z,7.2
2023-02-24T14:20:00.884Z,7.3
2023-02-24T14:25:00.808Z,7.2
2023-02-24T14:30:00.917Z,7.3
2023-02-24T14:35:00.910Z,7.2
2023-02-24T14:40:00.856Z,7
2023-02-24T14:45:00.839Z,7
2023-02-24T14:50:00.907Z,6.9
2023-02-24T14:55:00.834Z,6.9
2023-02-24T15:00:00.787Z,6.8
2023-02-24T15:05:00.920Z,6.9
2023-02-24T15:10:00.835Z,6.9
2023-02-24T15:15:00.760Z,6.8
2023-02-24T15:20:00.832Z,6.7
2023-02-24T15:25:00.786Z,6.7
2023-02-24T15:30:00.864Z,6.7
2023-02-24T15:35:00.835Z,6.7
2023-02-24T15:40:00.783Z,6.6
2023-02-24T15:45:00.917Z,6.7
2023-02-24T15:50:00.802Z,6.7
2023-02-24T15:55:00.806Z,6.7
2023-02-24T16:00:01.013Z,6.7
2023-02-24T16:05:00.767Z,6.7
2023-02-24T16:10:00.898Z,6.7
2023-02-24T16:15:00.805Z,6.5
2023-02-24T16:20:00.846Z,6.5
2023-02-24T16:25:00.846Z,6.4
2023-02-24T16:30:00.885Z,6.4
2023-02-24T16:35:00.909Z,6.5
2023-02-24T16:40:00.857Z,6.5
2023-02-24T16:45:00.847Z,6.5
2023-02-24T16:50:00.855Z,6.5
2023-02-24T16:55:00.850Z,6.6
2023-02-24T17:00:00.802Z,6.6
2023-02-24T17:05:00.960Z,6.6
2023-02-24T17:10:00.778Z,6.6
2023-02-24T17:15:00.781Z,6.5
2023-02-24T17:20:00.873Z,6.6
2023-02-24T17:25:00.918Z,6.5
2023-02-24T17:30:00.875Z,6.5
2023-02-24T17:35:00.844Z,6.5
2023-02-24T17:40:00.871Z,6.5
2023-02-24T17:45:00.787Z,6.5
2023-02-24T17:50:00.811Z,6.5
2023-02-24T17:55:00.869Z,6.5
2023-02-24T18:00:00.826Z,6.5
2023-02-24T18:05:00.826Z,6.5
2023-02-24T18:10:00.862Z,6.5
2023-02-24T18:15:08.133Z,6.5
2023-02-24T18:20:00.852Z,6.6
2023-02-24T18:25:00.935Z,6.5
2023-02-24T18:30:00.830Z,6.5
2023-02-24T18:35:00.862Z,6.5
2023-02-24T18:40:01.038Z,6.5
2023-02-24T18:45:00.833Z,6.6
2023-02-24T18:50:00.865Z,6.6
2023-02-24T18:55:00.824Z,6.7
2023-02-24T19:00:00.887Z,6.8
2023-02-24T19:05:00.910Z,6.9
2023-02-24T19:10:00.879Z,6.9
2023-02-24T19:15:00.864Z,7
2023-02-24T19:20:00.853Z,7
2023-02-24T19:25:00.966Z,7
2023-02-24T19:30:00.817Z,7.1
2023-02-24T19:35:00.824Z,7.1
2023-02-24T19:40:00.817Z,7.1
2023-02-24T19:45:00.830Z,7.2
2023-02-24T19:50:00.780Z,7.2
2023-02-24T19:55:00.839Z,7.2
2023-02-24T20:00:00.839Z,7.2
2023-02-24T20:05:00.829Z,7.3
2023-02-24T20:10:00.898Z,7.2
2023-02-24T20:15:00.807Z,7.3
2023-02-24T20:20:00.795Z,7.3
2023-02-24T20:25:00.860Z,7.3
2023-02-24T20:30:00.820Z,7.3
2023-02-24T20:35:00.915Z,7.3
2023-02-24T20:40:00.857Z,7.3
2023-02-24T20:45:00.901Z,7.3
2023-02-24T20:50:00.811Z,7.3
2023-02-24T20:55:00.870Z,7.3
2023-02-24T21:00:04.032Z,7.4
2023-02-24T21:05:00.839Z,7.4
2023-02-24T21:10:00.932Z,7.4
2023-02-24T21:15:00.795Z,7.4
2023-02-24T21:20:00.837Z,7.4
2023-02-24T21:25:00.803Z,7.4
2023-02-24T21:30:00.817Z,7.4
2023-02-24T21:35:00.829Z,7.4
2023-02-24T21:40:00.874Z,7.4
2023-02-24T21:45:00.858Z,7.4
2023-02-24T21:50:00.878Z,7.4
2023-02-24T21:55:00.867Z,7.4
2023-02-24T22:00:00.841Z,7.4
2023-02-24T22:05:00.846Z,7.4
2023-02-24T22:10:00.840Z,7.4
2023-02-24T22:15:00.838Z,7.4
2023-02-24T22:20:00.798Z,7.4
2023-02-24T22:25:00.804Z,7.4
2023-02-24T22:30:00.862Z,7.5
2023-02-24T22:35:00.800Z,7.5
2023-02-24T22:40:00.836Z,7.5
2023-02-24T22:45:00.840Z,7.6
2023-02-24T22:50:00.835Z,7.5
2023-02-24T22:55:00.825Z,7.5
2023-02-24T23:00:00.947Z,7.5
2023-02-24T23:05:00.849Z,7.6
2023-02-24T23:10:00.877Z,7.6
2023-02-24T23:15:00.841Z,7.5
2023-02-24T23:20:00.862Z,7.5
2023-02-24T23:25:00.822Z,7.5
2023-02-24T23:30:00.858Z,7.5
2023-02-24T23:35:00.794Z,7.4
2023-02-24T23:40:00.848Z,7.4
2023-02-24T23:45:00.862Z,7.4
2023-02-24T23:50:00.977Z,7.3
2023-02-24T23:55:00.819Z,7.3
